Time;durP1;ratioP1;P1;durP2;ratioP2;P2;SDS_P1;SDS_P2;PMS_P1;PMS_P2;Temp;Humidity;BMP_temperature;BMP_pressure;BME280_temperature;BME280_humidity;BME280_pressure;Samples;Min_cycle;Max_cycle;Signal;HPM_P1;HPM_P2
2022/12/04 00:00:54;;;;;;;21.23;14.10;;;;;;;;;;5027807;28;20057;-86
2022/12/04 00:03:19;;;;;;;21.38;13.65;;;;;;;;;;5028104;28;20877;-87
2022/12/04 00:05:44;;;;;;;21.27;13.83;;;;;;;;;;5027163;28;20500;-87
2022/12/04 00:08:09;;;;;;;20.90;13.93;;;;;;;;;;5027046;28;20842;-87
2022/12/04 00:10:35;;;;;;;20.43;13.67;;;;;;;;;;5029911;28;20033;-86
2022/12/04 00:13:00;;;;;;;22.83;15.17;;;;;;;22.38;100.00;120354.81;5027509;28;20604;-86
2022/12/04 00:15:26;;;;;;;21.15;14.48;;;;;;;;;;5028272;28;20268;-86
2022/12/04 00:17:51;;;;;;;21.38;13.85;;;;;;;;;;5027516;28;20404;-86
2022/12/04 00:20:16;;;;;;;21.80;14.00;;;;;;;;;;5017770;28;20134;-86
2022/12/04 00:22:42;;;;;;;22.30;14.98;;;;;;;;;;5026769;28;20049;-87
2022/12/04 00:25:07;;;;;;;20.23;13.30;;;;;;;;;;5026911;28;20053;-87
2022/12/04 00:27:32;;;;;;;22.77;14.80;;;;;;;;;;5028844;28;20034;-86
2022/12/04 00:29:57;;;;;;;22.80;14.77;;;;;;;;;;5027381;28;20056;-86
2022/12/04 00:32:22;;;;;;;21.20;14.67;;;;;;;;;;5026823;28;20129;-86
2022/12/04 00:34:50;;;;;;;22.17;14.43;;;;;;;;;;5027852;28;20029;-87
2022/12/04 00:37:16;;;;;;;24.73;15.43;;;;;;;;;;5027650;28;20276;-86
2022/12/04 00:39:41;;;;;;;23.30;14.90;;;;;;;;;;5027677;28;20601;-86
2022/12/04 00:42:06;;;;;;;23.80;15.27;;;;;;;;;;5026983;28;20366;-86
2022/12/04 00:44:31;;;;;;;23.40;15.00;;;;;;;;;;5027505;28;20087;-86
2022/12/04 00:46:56;;;;;;;22.67;14.73;;;;;;;;;;5027485;28;20272;-86
2022/12/04 00:49:21;;;;;;;22.07;14.50;;;;;;;;;;5027568;28;20277;-87
2022/12/04 00:51:47;;;;;;;20.60;14.17;;;;;;;;;;5027305;28;20041;-86
2022/12/04 00:54:12;;;;;;;20.13;13.20;;;;;;;;;;5028369;28;20080;-87
2022/12/04 00:56:37;;;;;;;21.63;14.57;;;;;;;;;;5026494;28;20275;-86
2022/12/04 00:59:03;;;;;;;23.77;15.07;;;;;;;;;;5027967;28;20272;-86
2022/12/04 01:01:29;;;;;;;22.37;14.73;;;;;;;;;;5027514;28;20064;-86
2022/12/04 01:03:54;;;;;;;22.70;14.77;;;;;;;;;;5031450;28;20280;-86
2022/12/04 01:06:32;;;;;;;24.48;15.57;;;;;;;;;;5033996;28;20095;-86
2022/12/04 01:08:58;;;;;;;20.67;14.20;;;;;;;;;;5034396;28;20033;-86
2022/12/04 01:11:24;;;;;;;24.27;15.82;;;;;;;;;;5033079;28;20044;-87
2022/12/04 01:13:49;;;;;;;24.48;14.60;;;;;;;;;;5033629;28;20041;-86
2022/12/04 01:16:16;;;;;;;23.83;15.32;;;;;;;;;;5030636;28;20044;-86
2022/12/04 01:18:41;;;;;;;21.58;14.23;;;;;;;;;;5031979;28;20025;-86
2022/12/04 01:21:07;;;;;;;23.33;14.88;;;;;;;;;;5031722;28;20037;-86
2022/12/04 01:23:33;;;;;;;23.00;14.43;;;;;;;;;;5031614;28;20038;-87
2022/12/04 01:25:59;;;;;;;22.60;15.07;;;;;;;;;;5031976;28;20044;-87
2022/12/04 01:28:25;;;;;;;23.30;14.88;;;;;;;;;;5031134;28;20041;-86
2022/12/04 01:31:00;;;;;;;21.13;14.18;;;;;;;;;;5032389;28;20084;-86
2022/12/04 01:33:26;;;;;;;24.48;15.00;;;;;;;;;;5038668;28;20033;-86
2022/12/04 01:35:52;;;;;;;22.58;14.93;;;;;;;;;;5048154;28;20057;-86
2022/12/04 01:38:17;;;;;;;21.90;14.27;;;;;;;;;;5033642;28;20048;-86
2022/12/04 01:40:43;;;;;;;23.50;14.13;;;;;;;;;;5035575;28;20448;-86
2022/12/04 01:43:11;;;;;;;21.63;13.75;;;;;;;;;;5033868;28;20057;-86
2022/12/04 01:45:38;;;;;;;21.70;14.13;;;;;;;;;;5032193;28;20505;-86
2022/12/04 01:48:15;;;;;;;23.98;15.07;;;;;;;;;;5034268;28;20041;-86
2022/12/04 01:50:42;;;;;;;23.83;15.05;;;;;;;;;;5033405;28;20037;-87
2022/12/04 01:53:07;;;;;;;21.35;14.38;;;;;;;;;;5031631;28;20037;-87
2022/12/04 01:55:32;;;;;;;21.77;14.02;;;;;;;;;;5032419;28;20079;-86
2022/12/04 01:57:57;;;;;;;24.45;15.15;;;;;;;;;;5032170;28;20037;-86
2022/12/04 02:00:23;;;;;;;25.13;14.82;;;;;;;;;;5031716;28;20033;-86
2022/12/04 02:02:48;;;;;;;23.20;13.93;;;;;;;;;;5031761;28;20041;-86
2022/12/04 02:05:15;;;;;;;21.90;14.23;;;;;;;;;;5031785;28;20044;-86
2022/12/04 02:07:42;;;;;;;24.70;15.30;;;;;;;;;;5030284;28;20283;-86
2022/12/04 02:10:08;;;;;;;21.58;14.23;;;;;;;;;;5029865;28;20050;-87
2022/12/04 02:12:42;;;;;;;24.83;15.48;;;;;;;;;;5029764;28;20075;-86
2022/12/04 02:15:07;;;;;;;22.05;14.63;;;;;;;;;;5031250;28;20095;-87
2022/12/04 02:17:46;;;;;;;25.55;15.60;;;;;;;;;;5029980;28;20038;-86
2022/12/04 02:20:16;;;;;;;24.67;15.25;;;;;;;;;;5029343;28;20037;-85
2022/12/04 02:22:44;;;;;;;23.48;14.85;;;;;;;;;;5030876;28;20026;-86
2022/12/04 02:25:22;;;;;;;23.77;15.35;;;;;;;;;;5032049;28;20029;-86
2022/12/04 02:28:06;;;;;;;22.55;14.77;;;;;;;;;;5031953;28;20041;-86
2022/12/04 02:30:35;;;;;;;22.48;14.30;;;;;;;;;;5031922;28;20790;-87
2022/12/04 02:33:18;;;;;;;19.83;12.65;;;;;;;;;;5031828;28;20518;-86
2022/12/04 02:35:45;;;;;;;16.98;10.32;;;;;;;;;;5030352;28;20026;-86
2022/12/04 02:38:16;;;;;;;21.05;13.25;;;;;;;;;;5029261;28;20266;-87
2022/12/04 02:40:51;;;;;;;21.10;13.73;;;;;;;;;;5031896;28;20033;-87
2022/12/04 02:43:22;;;;;;;23.63;14.57;;;;;;;;;;5031226;28;20091;-86
2022/12/04 02:45:52;;;;;;;22.58;14.25;;;;;;;;;;5031554;28;20120;-85
2022/12/04 02:48:19;;;;;;;22.67;13.90;;;;;;;;;;5029972;28;20048;-86
2022/12/04 02:50:46;;;;;;;20.65;13.05;;;;;;;;;;5030543;28;20040;-86
2022/12/04 02:53:15;;;;;;;20.30;13.30;;;;;;;;;;5030283;28;20141;-87
2022/12/04 02:55:45;;;;;;;20.70;12.63;;;;;;;;;;5031233;28;20091;-86
2022/12/04 02:58:14;;;;;;;22.48;14.27;;;;;;;;;;5029642;28;20041;-86
2022/12/04 03:00:40;;;;;;;23.52;14.85;;;;;;;;;;5029687;28;20041;-86
2022/12/04 03:03:09;;;;;;;22.00;14.48;;;;;;;;;;5029271;28;20041;-86
2022/12/04 03:05:46;;;;;;;22.27;14.18;;;;;;;;;;5029421;28;20608;-86
2022/12/04 03:08:15;;;;;;;23.88;15.07;;;;;;;;;;5029282;28;20076;-87
2022/12/04 03:10:46;;;;;;;23.60;15.00;;;;;;;;;;5030535;28;20436;-86
2022/12/04 03:13:17;;;;;;;24.90;14.65;;;;;;;;;;5029689;28;20033;-86
2022/12/04 03:15:45;;;;;;;20.77;13.38;;;;;;;;;;5029552;28;20401;-86
2022/12/04 03:18:15;;;;;;;17.67;10.80;;;;;;;;;;5009313;28;20125;-86
2022/12/04 03:20:41;;;;;;;19.70;12.52;;;;;;;;;;5009669;28;20096;-86
2022/12/04 03:23:19;;;;;;;17.83;11.77;;;;;;;;;;5007987;28;20078;-86
2022/12/04 03:25:49;;;;;;;17.42;11.32;;;;;;;;;;5008611;28;20045;-86
2022/12/04 03:28:23;;;;;;;19.83;12.50;;;;;;;;;;5010237;28;20042;-86
2022/12/04 03:30:52;;;;;;;20.50;12.27;;;;;;;;;;5009181;28;20037;-86
2022/12/04 03:33:20;;;;;;;22.30;13.00;;;;;;;;;;5008369;28;20037;-86
2022/12/04 03:35:51;;;;;;;22.02;13.77;;;;;;;;;;5007841;28;20046;-86
2022/12/04 03:38:27;;;;;;;19.90;12.25;;;;;;;;;;5008051;28;20589;-86
2022/12/04 03:40:58;;;;;;;18.33;10.73;;;;;;;;;;5008789;28;20089;-86
2022/12/04 03:43:30;;;;;;;21.35;13.38;;;;;;;;;;5028115;28;20099;-86
2022/12/04 03:45:56;;;;;;;18.00;11.43;;;;;;;;;;5029722;28;20025;-86
2022/12/04 03:48:24;;;;;;;19.37;11.40;;;;;;;;;;5028140;28;20515;-86
2022/12/04 03:51:09;;;;;;;21.35;12.38;;;;;;;;;;5028117;28;20044;-86
2022/12/04 03:53:44;;;;;;;19.45;11.48;;;;;;;;;;5037540;28;20057;-87
2022/12/04 03:56:14;;;;;;;15.85;9.95;;;;;;;;;;5027627;28;20412;-86
2022/12/04 03:58:42;;;;;;;18.30;10.98;;;;;;;;;;5029308;28;20044;-86
2022/12/04 04:01:09;;;;;;;15.38;9.80;;;;;;;;;;5027679;28;20044;-86
2022/12/04 04:03:35;;;;;;;15.25;9.40;;;;;;;;;;5029097;28;20037;-86
2022/12/04 04:06:02;;;;;;;16.35;9.93;;;;;;;;;;5027790;28;20036;-86
2022/12/04 04:08:32;;;;;;;15.20;9.57;;;;;;;;;;5026702;28;20037;-86
2022/12/04 04:11:18;;;;;;;17.83;11.88;;;;;;;;;;5027726;28;20037;-87
2022/12/04 04:25:01;;;;;;;16.55;10.40;;;;;;;;;;5029560;28;20083;-86
2022/12/04 04:27:26;;;;;;;15.38;9.68;;;;;;;;;;5027008;28;20113;-86
2022/12/04 04:29:52;;;;;;;16.27;10.10;;;;;;;;;;5027772;28;20124;-87
2022/12/04 04:32:25;;;;;;;16.95;10.68;;;;;;;;;;5027203;28;20280;-86
2022/12/04 04:34:50;;;;;;;15.07;9.55;;;;;;;;;;5029023;28;20044;-86
2022/12/04 04:37:18;;;;;;;16.17;9.67;;;;;;;;;;5029106;28;20038;-86
2022/12/04 04:39:43;;;;;;;13.95;9.23;;;;;;;;;;5032118;28;20033;-86
2022/12/04 04:42:26;;;;;;;16.63;10.77;;;;;;;;;;5031022;28;20045;-87
2022/12/04 04:44:59;;;;;;;16.23;9.98;;;;;;;;;;5031913;28;20704;-86
2022/12/04 04:47:27;;;;;;;15.02;9.18;;;;;;;;;;5033013;28;20045;-86
2022/12/04 04:49:54;;;;;;;11.93;7.63;;;;;;;;;;5033326;28;20072;-86
2022/12/04 04:52:20;;;;;;;12.95;8.27;;;;;;;;;;5033383;28;20041;-86
2022/12/04 04:54:46;;;;;;;13.27;7.75;;;;;;;;;;5033736;28;20032;-86
2022/12/04 04:57:11;;;;;;;13.63;8.50;;;;;;;;;;5032020;28;20493;-86
2022/12/04 04:59:36;;;;;;;14.50;9.13;;;;;;;;;;5031844;28;20504;-87
2022/12/04 05:02:01;;;;;;;15.63;9.23;;;;;;;;;;5032242;28;20037;-86
2022/12/04 05:04:26;;;;;;;14.45;9.20;;;;;;;;;;5031973;28;20268;-87
2022/12/04 05:06:52;;;;;;;15.33;9.53;;;;;;;;;;5032104;28;20038;-87
2022/12/04 05:09:17;;;;;;;13.30;8.75;;;;;;;;;;5032210;28;20276;-86
2022/12/04 05:11:42;;;;;;;13.53;8.33;;;;;;;;;;5032017;28;20563;-86
2022/12/04 05:14:08;;;;;;;15.63;9.18;;;;;;;;;;5031897;28;20292;-87
2022/12/04 05:16:34;;;;;;;16.58;10.02;;;;;;;;;;5036316;28;20033;-86
2022/12/04 05:21:43;;;;;;;14.57;8.82;;;;;;;;;;5038793;28;20060;-86
2022/12/04 05:24:08;;;;;;;14.80;9.10;;;;;;;;;;5036395;28;20045;-86
2022/12/04 05:26:33;;;;;;;15.75;9.63;;;;;;;;;;5033644;28;20571;-86
2022/12/04 05:28:59;;;;;;;15.90;9.93;;;;;;;;;;5030281;28;20041;-86
2022/12/04 05:31:24;;;;;;;15.93;9.60;;;;;;;;;;5036508;28;20087;-86
2022/12/04 05:33:49;;;;;;;13.13;8.67;;;;;;;;;;5037005;28;20272;-85
2022/12/04 05:36:14;;;;;;;12.03;7.77;;;;;;;;;;5035798;28;20723;-86
2022/12/04 05:38:39;;;;;;;14.83;9.13;;;;;;;;;;5038723;28;20033;-86
2022/12/04 05:41:05;;;;;;;13.18;8.60;;;;;;;;;;5040698;28;20280;-86
2022/12/04 05:43:30;;;;;;;11.57;7.75;;;;;;;;;;5044251;28;20033;-86
2022/12/04 05:46:05;;;;;;;12.70;7.97;;;;;;;;;;5044226;28;20049;-86
2022/12/04 05:48:30;;;;;;;13.27;8.02;;;;;;;;;;5039560;28;20351;-86
2022/12/04 05:50:56;;;;;;;14.65;8.75;;;;;;;;;;5041288;28;20299;-85
2022/12/04 05:53:21;;;;;;;13.53;8.27;;;;;;;;;;5040080;28;20071;-85
2022/12/04 05:55:53;;;;;;;13.00;8.27;;;;;;;;;;5041092;28;20609;-86
2022/12/04 05:58:18;;;;;;;13.05;8.32;;;;;;;;;;5039071;28;20533;-85
2022/12/04 06:00:44;;;;;;;14.50;8.37;;;;;;;;;;5035686;28;20056;-85
2022/12/04 06:03:09;;;;;;;11.88;7.53;;;;;;;;;;5032486;28;20279;-86
2022/12/04 06:05:34;;;;;;;13.77;8.47;;;;;;;;;;5031017;28;20108;-87
2022/12/04 06:07:59;;;;;;;13.40;8.77;;;;;;;;;;5032050;28;20865;-86
2022/12/04 06:10:25;;;;;;;13.27;8.43;;;;;;;;;;5030020;28;20294;-87
2022/12/04 06:12:50;;;;;;;11.47;7.83;;;;;;;;;;5030789;28;20033;-86
2022/12/04 06:15:15;;;;;;;11.53;7.20;;;;;;;;;;5030177;28;20277;-86
2022/12/04 06:17:40;;;;;;;12.15;7.53;;;;;;;;;;5030032;28;20544;-87
2022/12/04 06:20:06;;;;;;;12.03;7.20;;;;;;;;;;5029727;28;20056;-86
2022/12/04 06:22:31;;;;;;;11.02;7.13;;;;;;;;;;5029531;28;20037;-87
2022/12/04 06:24:56;;;;;;;10.57;6.83;;;;;;;;;;5029346;28;20033;-86
2022/12/04 06:27:21;;;;;;;14.60;8.80;;;;;;;;;;5028205;28;20045;-87
2022/12/04 06:29:46;;;;;;;14.43;8.43;;;;;;;;;;5029220;28;20295;-87
2022/12/04 06:32:12;;;;;;;12.97;8.10;;;;;;;;;;5028648;28;20034;-85
2022/12/04 06:34:37;;;;;;;13.73;8.80;;;;;;;;;;5029373;28;20080;-86
2022/12/04 06:37:02;;;;;;;12.40;7.70;;;;;;;;;;5029306;28;20288;-87
2022/12/04 06:39:27;;;;;;;12.23;7.80;;;;;;;3.00;nan;100093.69;5030337;28;20306;-88
2022/12/04 06:41:53;;;;;;;12.13;7.82;;;;;;;;;;5028994;28;20038;-87
2022/12/04 06:44:18;;;;;;;12.30;7.67;;;;;;;;;;5028479;28;20049;-87
2022/12/04 06:46:43;;;;;;;11.33;7.00;;;;;;;;;;5028996;28;20516;-87
2022/12/04 06:49:08;;;;;;;12.32;7.65;;;;;;;;;;5029925;28;20304;-88
2022/12/04 06:51:35;;;;;;;11.52;7.47;;;;;;;;;;5028905;28;20037;-87
2022/12/04 06:54:01;;;;;;;10.65;7.25;;;;;;;;;;5028575;28;20037;-87
2022/12/04 06:56:27;;;;;;;12.93;8.57;;;;;;;;;;5028281;28;20630;-87
2022/12/04 06:58:54;;;;;;;12.45;8.05;;;;;;;;;;5028521;28;20092;-87
2022/12/04 07:01:22;;;;;;;12.93;8.00;;;;;;;;;;5028207;28;20463;-87
2022/12/04 07:03:48;;;;;;;13.15;8.18;;;;;;;;;;5029858;28;20500;-87
2022/12/04 07:06:24;;;;;;;14.25;9.13;;;;;;;;;;5029341;28;20568;-87
2022/12/04 07:08:51;;;;;;;27.65;14.25;;;;;;;;;;5027938;28;20456;-87
2022/12/04 07:11:17;;;;;;;19.15;11.05;;;;;;;;;;5028500;28;20664;-87
2022/12/04 07:13:42;;;;;;;14.75;8.63;;;;;;;;;;5028403;28;20076;-87
2022/12/04 07:16:09;;;;;;;13.05;8.20;;;;;;;;;;5029200;28;20400;-87
2022/12/04 07:18:35;;;;;;;11.77;7.45;;;;;;;;;;5028754;28;20496;-87
2022/12/04 07:21:03;;;;;;;10.75;7.15;;;;;;;;;;5028663;28;20115;-87
2022/12/04 07:23:29;;;;;;;11.35;6.80;;;;;;;;;;5028245;28;20038;-88
2022/12/04 07:25:54;;;;;;;13.10;8.20;;;;;;;;;;5029872;28;20037;-87
2022/12/04 07:28:19;;;;;;;12.30;7.70;;;;;;;;;;5025326;28;20345;-87
2022/12/04 07:30:45;;;;;;;13.93;9.33;;;;;;;;;;5029972;28;20682;-87
2022/12/04 07:33:10;;;;;;;17.85;10.48;;;;;;;;;;5028490;28;20313;-87
2022/12/04 07:35:35;;;;;;;14.30;8.90;;;;;;;;;;5030093;28;20033;-87
2022/12/04 07:38:00;;;;;;;12.50;8.07;;;;;;;;;;5028855;28;20284;-87
2022/12/04 07:40:25;;;;;;;14.83;8.63;;;;;;;;;;5027747;28;20350;-87
2022/12/04 07:42:51;;;;;;;13.00;8.17;;;;;;;;;;5027787;28;20038;-87
2022/12/04 07:45:16;;;;;;;12.87;7.70;;;;;;;;;;5027878;28;20280;-87
2022/12/04 07:47:41;;;;;;;11.40;7.38;;;;;;;;;;5027370;28;20053;-87
2022/12/04 07:50:07;;;;;;;11.35;7.60;;;;;;;;;;5028890;28;20045;-87
2022/12/04 07:52:38;;;;;;;14.93;9.02;;;;;;;;;;5027478;28;20041;-87
2022/12/04 07:55:07;;;;;;;13.95;9.13;;;;;;;;;;5027967;28;20037;-87
2022/12/04 07:57:32;;;;;;;11.88;7.28;;;;;;;;;;5027841;28;20386;-87
2022/12/04 07:59:59;;;;;;;13.82;8.82;;;;;;;;;;5011665;28;20497;-87
2022/12/04 08:02:24;;;;;;;13.30;8.30;;;;;;;;;;5027741;28;20108;-87
2022/12/04 08:04:49;;;;;;;12.65;7.90;;;;;;;;;;5029065;28;20459;-87
2022/12/04 08:07:14;;;;;;;10.97;7.40;;;;;;;;;;5030426;28;20041;-87
2022/12/04 08:09:40;;;;;;;11.13;7.30;;;;;;;;;;5028583;28;20271;-87
2022/12/04 08:12:05;;;;;;;11.70;7.60;;;;;;;;;;5027285;28;20280;-87
2022/12/04 08:14:30;;;;;;;11.05;6.85;;;;;;;;;;5028972;28;20280;-87
2022/12/04 08:16:56;;;;;;;10.80;7.20;;;;;;;;;;5027652;28;20037;-87
2022/12/04 08:19:21;;;;;;;15.50;8.70;;;;;;;;;;5027316;28;20036;-87
2022/12/04 08:21:46;;;;;;;12.73;7.73;;;;;;;;;;5027414;28;20030;-87
2022/12/04 08:24:11;;;;;;;10.07;6.22;;;;;;;;;;5026689;28;20044;-87
2022/12/04 08:26:37;;;;;;;11.80;6.78;;;;;;;;;;5026987;28;20460;-87
2022/12/04 08:29:04;;;;;;;10.68;6.80;;;;;;;;;;5027553;28;20040;-87
2022/12/04 08:31:31;;;;;;;11.45;7.10;;;;;;;;;;5028935;28;20412;-88
2022/12/04 08:33:57;;;;;;;13.38;8.23;;;;;;;;;;5028328;28;20048;-88
2022/12/04 08:36:22;;;;;;;16.45;10.93;;;;;;;;;;5027237;28;20041;-87
2022/12/04 08:38:48;;;;;;;13.52;9.30;;;;;;;;;;5027225;28;20033;-87
2022/12/04 08:41:14;;;;;;;16.05;9.10;;;;;;;;;;5027331;28;20034;-87
2022/12/04 08:43:39;;;;;;;15.93;9.20;;;;;;;;;;5026618;28;20042;-87
2022/12/04 08:46:05;;;;;;;15.00;9.10;;;;;;;;;;5026810;28;20037;-87
2022/12/04 08:48:31;;;;;;;12.57;8.18;;;;;;;;;;5026541;28;20038;-88
2022/12/04 08:50:56;;;;;;;11.18;7.45;;;;;;;;;;5027438;28;20037;-87
2022/12/04 08:53:21;;;;;;;13.27;7.93;;;;;;;;;;5028034;28;20049;-87
2022/12/04 08:55:47;;;;;;;10.52;7.22;;;;;;;;;;5026926;28;20271;-87
2022/12/04 08:58:12;;;;;;;11.05;6.75;;;;;;;;;;5026547;28;20030;-87
2022/12/04 09:00:38;;;;;;;13.02;8.75;;;;;;;;;;5027185;28;20038;-88
2022/12/04 09:03:03;;;;;;;11.55;8.18;;;;;;;;;;5028373;28;20124;-87
2022/12/04 09:05:31;;;;;;;12.27;7.72;;;;;;;;;;5027064;28;20092;-87
2022/12/04 09:07:56;;;;;;;9.95;6.13;;;;;;;;;;5027319;28;20038;-87
2022/12/04 09:10:22;;;;;;;11.30;7.40;;;;;;;;;;5026846;28;20064;-88
2022/12/04 09:12:47;;;;;;;12.15;7.65;;;;;;;;;;5028024;28;20398;-87
2022/12/04 09:15:12;;;;;;;13.00;8.00;;;;;;;;;;5029339;28;20669;-87
2022/12/04 09:17:37;;;;;;;11.50;7.80;;;;;;;;;;5027391;28;20752;-87
2022/12/04 09:20:04;;;;;;;11.27;7.70;;;;;;;;;;5027353;28;20107;-87
2022/12/04 09:22:29;;;;;;;11.50;7.43;;;;;;;;;;5027979;28;20099;-88
2022/12/04 09:24:55;;;;;;;10.23;6.78;;;;;;;;;;5031388;28;20508;-88
2022/12/04 09:27:20;;;;;;;10.82;6.72;;;;;;;;;;5033044;28;20056;-87
2022/12/04 09:29:51;;;;;;;8.67;6.10;;;;;;;;;;5033075;28;20041;-88
2022/12/04 09:32:16;;;;;;;8.73;5.50;;;;;;;;;;5030817;28;20272;-87
2022/12/04 09:34:42;;;;;;;9.27;6.27;;;;;;;;;;5031492;28;20040;-85
2022/12/04 09:37:07;;;;;;;10.82;7.30;;;;;;;;;;5035481;28;20311;-85
2022/12/04 09:39:32;;;;;;;12.57;8.00;;;;;;;;;;5032098;28;20038;-86
2022/12/04 09:41:57;;;;;;;12.13;7.67;;;;;;;;;;5033676;28;20033;-86
2022/12/04 09:44:26;;;;;;;11.17;7.00;;;;;;;;;;5033455;28;20758;-86
2022/12/04 09:46:56;;;;;;;10.45;6.40;;;;;;;;;;5033705;28;20041;-86
2022/12/04 09:49:42;;;;;;;9.65;6.40;;;;;;;;;;5032031;28;20116;-86
2022/12/04 09:52:26;;;;;;;9.30;5.93;;;;;;;;;;5039506;28;20224;-87
2022/12/04 09:54:52;;;;;;;9.63;5.95;;;;;;;;;;5031931;28;20179;-86
2022/12/04 09:57:27;;;;;;;8.38;5.80;;;;;;;;;;5031593;28;20030;-86
2022/12/04 09:59:53;;;;;;;10.23;6.80;;;;;;;;;;5030874;28;20128;-86
2022/12/04 10:02:32;;;;;;;11.57;7.38;;;;;;;;;;5029552;28;20467;-85
2022/12/04 10:04:57;;;;;;;10.15;6.45;;;;;;;;;;5031132;28;20120;-85
2022/12/04 10:07:30;;;;;;;7.93;5.43;;;;;;;;;;5030549;28;20132;-85
2022/12/04 10:10:06;;;;;;;9.85;6.35;;;;;;;;;;5029954;28;20034;-85
2022/12/04 10:12:45;;;;;;;11.52;7.72;;;;;;;;;;5031587;28;20674;-86
2022/12/04 10:15:10;;;;;;;12.13;7.93;;;;;;;;;;5031439;28;20544;-87
2022/12/04 10:17:36;;;;;;;9.87;6.60;;;;;;;;;;5033379;28;20069;-87
2022/12/04 10:20:19;;;;;;;9.52;6.45;;;;;;;;;;5032730;28;20287;-87
2022/12/04 10:23:34;;;;;;;9.18;6.22;;;;;;;22.38;100.00;120369.41;5032007;28;20407;-86
2022/12/04 10:26:02;;;;;;;11.15;6.90;;;;;;;;;;4990781;28;20046;-86
2022/12/04 10:28:32;;;;;;;10.45;6.72;;;;;;;;;;4973333;28;20045;-86
2022/12/04 10:30:59;;;;;;;10.93;6.97;;;;;;;;;;5010087;28;20047;-87
2022/12/04 10:33:37;;;;;;;11.57;7.85;;;;;;;;;;5028748;28;20102;-87
2022/12/04 10:36:03;;;;;;;10.32;7.28;;;;;;;;;;5030404;28;20518;-87
2022/12/04 10:38:33;;;;;;;12.27;7.70;;;;;;;;;;5033801;28;20117;-86
2022/12/04 10:41:01;;;;;;;11.10;7.57;;;;;;;;;;5034231;28;20273;-87
2022/12/04 10:43:43;;;;;;;12.13;7.63;;;;;;;;;;5032088;28;20046;-86
2022/12/04 10:46:11;;;;;;;11.80;7.28;;;;;;;;;;5033046;28;20038;-87
2022/12/04 10:48:38;;;;;;;16.45;9.25;;;;;;;;;;5036028;28;20029;-85
2022/12/04 10:51:04;;;;;;;16.10;10.13;;;;;;;;;;5034920;28;20033;-86
2022/12/04 10:53:31;;;;;;;17.33;10.57;;;;;;;;;;5036076;28;20052;-85
2022/12/04 10:56:06;;;;;;;18.63;10.00;;;;;;;;;;5035665;28;20105;-85
2022/12/04 10:58:32;;;;;;;19.98;11.30;;;;;;;;;;5034924;28;20029;-85
2022/12/04 11:01:01;;;;;;;17.83;10.40;;;;;;;;;;5034319;28;20041;-85
2022/12/04 11:03:27;;;;;;;17.55;9.38;;;;;;;;;;5032067;28;20038;-85
2022/12/04 11:05:54;;;;;;;21.15;11.73;;;;;;;;;;5029222;28;20124;-85
2022/12/04 11:08:24;;;;;;;18.75;11.27;;;;;;;;;;5029343;28;20037;-85
2022/12/04 11:10:58;;;;;;;18.17;10.57;;;;;;;;;;5031610;28;20029;-85
2022/12/04 11:13:23;;;;;;;17.70;10.40;;;;;;;;;;5033471;28;20095;-85
2022/12/04 11:15:50;;;;;;;19.35;10.10;;;;;;;;;;5033866;28;20033;-85
2022/12/04 11:18:23;;;;;;;17.08;10.27;;;;;;;;;;5034691;28;20122;-85
2022/12/04 11:20:51;;;;;;;19.45;10.98;;;;;;;;;;5034991;28;20034;-85
2022/12/04 11:23:17;;;;;;;20.92;11.82;;;;;;;;;;5034647;28;20048;-85
2022/12/04 11:25:47;;;;;;;20.20;12.10;;;;;;;;;;5036274;28;20038;-85
2022/12/04 11:28:17;;;;;;;18.97;10.97;;;;;;;;;;5040739;28;20037;-85
2022/12/04 11:30:46;;;;;;;21.67;12.13;;;;;;;;;;5034565;28;20052;-85
2022/12/04 11:33:31;;;;;;;20.73;11.98;;;;;;;;;;5033074;28;20044;-85
2022/12/04 11:35:58;;;;;;;21.60;12.93;;;;;;;;;;5035994;28;20160;-85
2022/12/04 11:38:25;;;;;;;17.77;10.73;;;;;;;;;;5040015;28;20481;-86
2022/12/04 11:40:57;;;;;;;19.42;10.75;;;;;;;;;;5040425;28;20045;-86
2022/12/04 11:43:27;;;;;;;18.27;10.82;;;;;;;;;;5039656;28;20072;-85
2022/12/04 11:45:59;;;;;;;17.08;9.90;;;;;;;;;;5036707;28;20106;-85
2022/12/04 11:48:25;;;;;;;22.13;12.15;;;;;;;;;;5036414;28;20083;-85
2022/12/04 11:50:56;;;;;;;21.80;12.23;;;;;;;;;;5040004;28;20504;-85
2022/12/04 11:53:21;;;;;;;;;;;;;;;;;;5038574;28;20048;-85
2022/12/04 11:56:07;;;;;;;19.17;11.18;;;;;;;;;;5037860;28;19916;-86
2022/12/04 11:58:50;;;;;;;18.63;10.40;;;;;;;;;;5035990;28;20029;-85
2022/12/04 12:01:18;;;;;;;17.65;9.70;;;;;;;;;;5036348;28;20037;-85
2022/12/04 12:03:54;;;;;;;21.55;12.13;;;;;;;;;;5036017;28;20029;-85
2022/12/04 12:06:31;;;;;;;20.67;12.38;;;;;;;;;;5037793;28;20033;-86
2022/12/04 12:09:15;;;;;;;22.02;11.80;;;;;;;;;;5036439;28;20444;-85
2022/12/04 12:11:50;;;;;;;19.45;11.10;;;;;;;;;;5036162;28;20033;-86
2022/12/04 12:14:24;;;;;;;20.45;11.73;;;;;;;;;;5035858;28;20097;-85
2022/12/04 12:17:05;;;;;;;23.60;12.73;;;;;;;;;;5037884;28;20030;-86
2022/12/04 12:19:33;;;;;;;21.50;12.70;;;;;;;;;;5036931;28;20060;-85
2022/12/04 12:22:17;;;;;;;25.02;12.27;;;;;;;;;;5035046;28;20455;-85
2022/12/04 12:24:45;;;;;;;22.58;12.55;;;;;;;;;;5036506;28;20041;-86
2022/12/04 12:27:19;;;;;;;22.95;13.75;;;;;;;;;;5032256;28;20041;-87
2022/12/04 12:30:00;;;;;;;25.23;12.80;;;;;;;;;;5028010;28;20029;-87
2022/12/04 12:32:41;;;;;;;23.30;12.98;;;;;;;;;;5027862;28;20041;-86
2022/12/04 12:35:16;;;;;;;25.27;13.30;;;;;;;;;;5027377;28;20524;-86
2022/12/04 12:38:20;;;;;;;28.77;13.98;;;;;;;;;;5027406;28;20036;-87
2022/12/04 12:41:11;;;;;;;28.50;15.93;;;;;;;;;;5045428;28;20076;-87
2022/12/04 12:43:38;;;;;;;25.25;14.55;;;;;;;;;;5026835;28;20171;-87
2022/12/04 12:46:14;;;;;;;24.90;13.68;;;;;;;;;;5034038;28;20497;-87
2022/12/04 12:48:59;;;;;;;26.05;14.95;;;;;;;;;;5028235;28;20404;-87
2022/12/04 12:51:24;;;;;;;26.40;14.00;;;;;;;;;;5027705;28;20037;-87
2022/12/04 12:53:52;;;;;;;24.80;14.27;;;;;;;;;;5030067;28;20531;-87
2022/12/04 12:56:18;;;;;;;26.15;14.38;;;;;;;;;;5029345;28;20029;-87
2022/12/04 12:58:54;;;;;;;28.25;15.27;;;;;;;3.07;nan;99875.47;5030114;28;20116;-87
2022/12/04 13:01:38;;;;;;;33.83;18.13;;;;;;;;;;5031361;28;20068;-86
2022/12/04 13:04:22;;;;;;;26.00;14.82;;;;;;;;;;5030787;28;20403;-87
2022/12/04 13:06:51;;;;;;;29.67;17.00;;;;;;;;;;5030988;28;20731;-86
2022/12/04 13:09:20;;;;;;;29.30;14.45;;;;;;;;;;5030611;28;20449;-87
2022/12/04 13:11:47;;;;;;;23.88;13.52;;;;;;;;;;5030685;28;20437;-87
2022/12/04 13:14:13;;;;;;;25.70;14.38;;;;;;;;;;5030388;28;20033;-87
2022/12/04 13:16:45;;;;;;;26.80;15.07;;;;;;;;;;5031002;28;20526;-86
2022/12/04 13:19:16;;;;;;;27.63;14.48;;;;;;;;;;5031309;28;20065;-87
2022/12/04 13:22:00;;;;;;;25.80;13.88;;;;;;;;;;5031053;28;20035;-87
2022/12/04 13:24:28;;;;;;;26.90;15.13;;;;;;;;;;5031558;28;20516;-87
2022/12/04 13:27:14;;;;;;;25.55;13.85;;;;;;;;;;5030751;28;20033;-87
2022/12/04 13:30:00;;;;;;;25.77;14.20;;;;;;;;;;5030384;28;20044;-87
2022/12/04 13:32:44;;;;;;;29.40;14.25;;;;;;;;;;5029797;28;20614;-87
2022/12/04 13:35:21;;;;;;;28.02;14.45;;;;;;;;;;5030384;28;20038;-88
2022/12/04 13:37:57;;;;;;;30.90;15.10;;;;;;;;;;5031745;28;20041;-87
2022/12/04 13:40:31;;;;;;;25.55;13.90;;;;;;;;;;5031226;28;20038;-87
2022/12/04 13:43:12;;;;;;;23.75;13.30;;;;;;;;;;5031359;28;20038;-87
2022/12/04 13:45:38;;;;;;;29.13;15.27;;;;;;;;;;5031486;28;20711;-87
2022/12/04 13:48:03;;;;;;;24.45;13.00;;;;;;;;;;5029831;28;20053;-87
2022/12/04 13:50:30;;;;;;;26.02;13.70;;;;;;;;;;5030608;28;20611;-88
2022/12/04 13:52:56;;;;;;;24.75;13.13;;;;;;;;;;5031442;28;20401;-87
2022/12/04 13:55:25;;;;;;;26.15;14.35;;;;;;;;;;5031422;28;20037;-86
2022/12/04 13:57:57;;;;;;;28.52;15.23;;;;;;;;;;5031840;28;20040;-87
2022/12/04 14:00:31;;;;;;;28.83;15.80;;;;;;;;;;5030575;28;20128;-87
2022/12/04 14:03:04;;;;;;;27.75;15.35;;;;;;;;;;5032649;28;20033;-87
2022/12/04 14:05:40;;;;;;;28.50;15.77;;;;;;;;;;5034811;28;20087;-87
2022/12/04 14:08:17;;;;;;;25.60;14.15;;;;;;;;;;5033066;28;20057;-88
2022/12/04 14:10:43;;;;;;;32.20;15.85;;;;;;;;;;5032696;28;20155;-87
2022/12/04 14:13:11;;;;;;;26.77;15.07;;;;;;;;;;5032355;28;20045;-87
2022/12/04 14:15:37;;;;;;;31.60;15.52;;;;;;;;;;5031600;28;20047;-87
2022/12/04 14:18:12;;;;;;;30.08;15.70;;;;;;;;;;5031331;28;20120;-87
2022/12/04 14:20:38;;;;;;;28.95;15.40;;;;;;;;;;5030004;28;20052;-87
2022/12/04 14:23:07;;;;;;;28.27;15.18;;;;;;;;;;5030086;28;20037;-87
2022/12/04 14:25:37;;;;;;;27.48;14.90;;;;;;;;;;5029769;28;20634;-87
2022/12/04 14:28:21;;;;;;;25.40;13.35;;;;;;;;;;5029477;28;20037;-88
2022/12/04 14:30:56;;;;;;;27.42;14.88;;;;;;;;;;5029637;28;20053;-87
2022/12/04 14:33:22;;;;;;;25.85;13.38;;;;;;;;;;5030505;28;20033;-87
2022/12/04 14:36:07;;;;;;;31.00;14.85;;;;;;;;;;5029342;28;20045;-87
2022/12/04 14:38:33;;;;;;;30.00;15.95;;;;;;;;;;5028880;28;20029;-88
2022/12/04 14:41:03;;;;;;;26.70;14.20;;;;;;;;;;5033630;28;20045;-86
2022/12/04 14:43:33;;;;;;;23.45;12.73;;;;;;;;;;5012854;28;20053;-86
2022/12/04 14:46:17;;;;;;;28.05;15.15;;;;;;;;;;5018871;28;20033;-85